createdAt,value
2018-06-23T00:00:32.176Z,1061.57
2018-06-23T00:01:32.202Z,1061.55
2018-06-23T00:02:32.181Z,1061.62
2018-06-23T00:03:32.203Z,1061.34
2018-06-23T00:04:32.184Z,1061.41
2018-06-23T00:05:32.177Z,1061.4
2018-06-23T00:06:32.202Z,1061.47
2018-06-23T00:07:32.190Z,1061.74
2018-06-23T00:08:32.195Z,1061.65
2018-06-23T00:09:32.201Z,1061.78
2018-06-23T00:10:32.210Z,1061.7
2018-06-23T00:11:32.225Z,1061.7
2018-06-23T00:12:32.197Z,1061.66
2018-06-23T00:13:32.238Z,1061.98
2018-06-23T00:14:32.196Z,1062.12
2018-06-23T00:15:32.198Z,1062.04
2018-06-23T00:16:32.206Z,1062.06
2018-06-23T00:17:32.213Z,1062.17
2018-06-23T00:18:32.210Z,1062.23
2018-06-23T00:19:32.201Z,1062.42
2018-06-23T00:20:32.212Z,1062.26
2018-06-23T00:21:32.229Z,1062.29
2018-06-23T00:22:32.241Z,1062.21
2018-06-23T00:23:32.231Z,1062.25
2018-06-23T00:24:32.222Z,1061.76
2018-06-23T00:25:32.215Z,1061.95
2018-06-23T00:26:32.238Z,1061.67
2018-06-23T00:27:32.217Z,1061.72
2018-06-23T00:28:32.225Z,1061.57
2018-06-23T00:29:32.217Z,1061.35
2018-06-23T00:30:32.254Z,1061.29
2018-06-23T00:31:32.223Z,1061.04
2018-06-23T00:32:32.230Z,1061.3
2018-06-23T00:33:32.239Z,1061.13
2018-06-23T00:34:32.241Z,1061.4
2018-06-23T00:35:32.228Z,1061.2
2018-06-23T00:36:32.236Z,1061.13
2018-06-23T00:37:32.244Z,1060.97
2018-06-23T00:38:32.263Z,1060.91
2018-06-23T00:39:32.258Z,1061.01
2018-06-23T00:40:32.252Z,1061.1
2018-06-23T00:41:32.259Z,1061.31
2018-06-23T00:42:32.241Z,1061.24
2018-06-23T00:43:32.248Z,1061.64
2018-06-23T00:44:32.266Z,1061.73
2018-06-23T00:45:32.265Z,1061.86
2018-06-23T00:46:32.277Z,1061.86
2018-06-23T00:47:32.310Z,1062.12
2018-06-23T00:48:32.255Z,1062.27
2018-06-23T00:49:32.268Z,1062.35
2018-06-23T00:50:32.268Z,1062.44
2018-06-23T00:51:32.284Z,1062.57
2018-06-23T00:52:32.262Z,1062.65
2018-06-23T00:53:32.287Z,1062.77
2018-06-23T00:54:32.275Z,1062.89
2018-06-23T00:55:32.282Z,1062.92
2018-06-23T00:56:32.277Z,1062.81
2018-06-23T00:57:32.296Z,1062.68
2018-06-23T00:58:32.266Z,1062.99
2018-06-23T00:59:32.277Z,1062.97
2018-06-23T01:00:32.287Z,1063.08
2018-06-23T01:01:32.290Z,1063.14
2018-06-23T01:02:32.315Z,1063.42
2018-06-23T01:03:32.282Z,1063.35
2018-06-23T01:04:32.289Z,1063.49
2018-06-23T01:05:32.286Z,1063.58
2018-06-23T01:06:32.295Z,1063.71
2018-06-23T01:07:32.301Z,1063.72
2018-06-23T01:08:32.320Z,1063.73
2018-06-23T01:09:32.295Z,1064.02
2018-06-23T01:10:32.291Z,1063.87
2018-06-23T01:11:32.300Z,1064
2018-06-23T01:12:32.320Z,1063.93
2018-06-23T01:13:32.315Z,1063.86
2018-06-23T01:14:32.300Z,1063.69
2018-06-23T01:15:32.305Z,1063.37
2018-06-23T01:16:32.319Z,1063.29
2018-06-23T01:17:32.351Z,1063.2
2018-06-23T01:18:32.321Z,1063.06
2018-06-23T01:19:32.326Z,1063.14
2018-06-23T01:20:32.307Z,1063.06
2018-06-23T01:21:32.317Z,1062.91
2018-06-23T01:22:32.350Z,1062.99
2018-06-23T01:23:32.332Z,1063.16
2018-06-23T01:24:32.305Z,1062.99
2018-06-23T01:25:32.325Z,1063.16
2018-06-23T01:26:32.351Z,1063.17
2018-06-23T01:27:32.325Z,1063.2
2018-06-23T01:28:32.330Z,1063.04
2018-06-23T01:29:32.331Z,1062.91
2018-06-23T01:30:32.342Z,1062.93
2018-06-23T01:31:32.352Z,1062.74
2018-06-23T01:32:32.341Z,1062.87
2018-06-23T01:33:32.338Z,1062.75
2018-06-23T01:34:32.347Z,1062.47
2018-06-23T01:35:32.378Z,1062.42
2018-06-23T01:36:32.334Z,1062.35
2018-06-23T01:37:32.370Z,1062.24
2018-06-23T01:38:32.357Z,1062.05
2018-06-23T01:39:32.355Z,1062.06
2018-06-23T01:40:32.340Z,1062.04
2018-06-23T01:41:32.341Z,1061.97
2018-06-23T01:42:32.357Z,1061.79
2018-06-23T01:43:32.373Z,1061.68
2018-06-23T01:44:32.366Z,1061.67
2018-06-23T01:45:32.352Z,1061.59
2018-06-23T01:46:32.361Z,1061.39
2018-06-23T01:47:32.360Z,1061.38
2018-06-23T01:48:32.357Z,1061.71
2018-06-23T01:49:32.366Z,1061.63
2018-06-23T01:50:32.351Z,1061.65
2018-06-23T01:51:32.383Z,1061.58
2018-06-23T01:52:32.369Z,1061.9
2018-06-23T01:53:32.374Z,1061.76
2018-06-23T01:54:32.374Z,1061.76
2018-06-23T01:55:32.401Z,1061.84
2018-06-23T01:56:32.391Z,1061.62
2018-06-23T01:57:32.383Z,1061.87
2018-06-23T01:58:32.390Z,1061.9
2018-06-23T01:59:32.384Z,1061.76
2018-06-23T02:00:32.388Z,1061.87
2018-06-23T02:01:32.385Z,1061.8
2018-06-23T02:02:32.402Z,1061.71
2018-06-23T02:03:32.383Z,1061.9
2018-06-23T02:04:32.391Z,1061.9
2018-06-23T02:05:32.399Z,1061.91
2018-06-23T02:06:32.402Z,1061.83
2018-06-23T02:07:32.415Z,1061.93
2018-06-23T02:08:32.390Z,1061.89
2018-06-23T02:09:32.399Z,1062.16
2018-06-23T02:10:32.404Z,1061.77
2018-06-23T02:11:32.416Z,1061.94
2018-06-23T02:12:32.447Z,1062.04
2018-06-23T02:13:32.399Z,1062.06
2018-06-23T02:14:32.409Z,1062.1
2018-06-23T02:15:32.421Z,1062.18
2018-06-23T02:16:32.420Z,1062.32
2018-06-23T02:17:32.476Z,1062.2
2018-06-23T02:18:32.465Z,1062.32
2018-06-23T02:19:32.433Z,1062.6
2018-06-23T02:20:32.432Z,1062.48
2018-06-23T02:21:32.434Z,1062.66
2018-06-23T02:22:32.944Z,1062.62
2018-06-23T02:23:32.422Z,1062.72
2018-06-23T02:24:32.429Z,1062.9
2018-06-23T02:25:32.463Z,1062.76
2018-06-23T02:26:32.436Z,1063.09
2018-06-23T02:27:32.441Z,1063.29
2018-06-23T02:28:32.447Z,1063.31
2018-06-23T02:29:32.429Z,1063.79
2018-06-23T02:30:32.435Z,1063.98
2018-06-23T02:31:32.446Z,1064.17
2018-06-23T02:32:32.459Z,1064.25
2018-06-23T02:37:02.019Z,1064.67
2018-06-23T02:38:01.994Z,1064.62
2018-06-23T02:39:01.982Z,1064.57
2018-06-23T02:40:01.979Z,1064.66
2018-06-23T02:41:01.999Z,1064.4
2018-06-23T02:42:02.009Z,1064.35
2018-06-23T02:43:02.014Z,1064.44
2018-06-23T02:44:02.034Z,1064.25
2018-06-23T02:45:02.016Z,1064.3
2018-06-23T02:46:02.048Z,1064.12
2018-06-23T02:47:02.013Z,1064.03
2018-06-23T02:48:02.022Z,1063.74
2018-06-23T02:49:02.012Z,1063.76
2018-06-23T02:50:02.009Z,1063.73
2018-06-23T02:51:02.026Z,1063.68
2018-06-23T02:52:02.021Z,1063.77
2018-06-23T02:53:02.035Z,1063.79
2018-06-23T02:54:02.021Z,1063.75
2018-06-23T02:55:02.028Z,1063.75
2018-06-23T02:56:02.018Z,1063.47
2018-06-23T02:57:02.024Z,1063.52
2018-06-23T02:58:02.086Z,1063.54
2018-06-23T02:59:02.015Z,1063.69
2018-06-23T03:00:02.035Z,1063.55
2018-06-23T03:01:02.023Z,1063.46
2018-06-23T03:02:02.023Z,1063.51
2018-06-23T03:03:02.030Z,1063.55
2018-06-23T03:04:02.047Z,1063.15
2018-06-23T03:05:02.056Z,1063.71
2018-06-23T03:06:02.049Z,1063.6
2018-06-23T03:07:02.971Z,1063.49
2018-06-23T03:08:02.035Z,1063.68
2018-06-23T03:09:02.055Z,1063.55
2018-06-23T03:10:02.049Z,1063.64
2018-06-23T03:11:02.058Z,1063.63
2018-06-23T03:12:02.092Z,1063.66
2018-06-23T03:13:02.084Z,1063.54
2018-06-23T03:14:02.051Z,1063.8
2018-06-23T03:15:02.055Z,1063.57
2018-06-23T03:16:02.077Z,1063.38
2018-06-23T03:17:02.044Z,1063.51
2018-06-23T03:18:02.078Z,1063.43
2018-06-23T03:19:02.056Z,1063.45
2018-06-23T03:20:02.064Z,1063.4
2018-06-23T03:21:02.041Z,1063.3
2018-06-23T03:22:02.069Z,1063.04
2018-06-23T03:26:30.208Z,1063.25
2018-06-23T03:27:30.216Z,1063.08
2018-06-23T03:28:30.172Z,1063.27
2018-06-23T03:29:30.183Z,1063.02
2018-06-23T03:30:30.176Z,1063.24
2018-06-23T03:31:30.193Z,1062.76
2018-06-23T03:32:30.197Z,1062.86
2018-06-23T03:33:30.185Z,1063.32
2018-06-23T03:34:30.189Z,1063.23
2018-06-23T03:35:30.197Z,1063.13
2018-06-23T03:36:30.192Z,1063.12
2018-06-23T03:37:30.194Z,1062.99
2018-06-23T03:38:30.192Z,1063.04
2018-06-23T03:39:30.192Z,1063.01
2018-06-23T03:40:30.200Z,1063.15
2018-06-23T03:41:30.263Z,1063.38
2018-06-23T03:45:58.547Z,1063.02
2018-06-23T03:46:58.561Z,1063.23
2018-06-23T03:47:58.535Z,1063.4
2018-06-23T03:48:58.517Z,1063.12
2018-06-23T03:49:58.538Z,1063.2
2018-06-23T03:54:27.043Z,1063.07
2018-06-23T03:55:27.043Z,1063.16
2018-06-23T03:56:27.019Z,1063.23
2018-06-23T03:57:27.023Z,1063
2018-06-23T03:58:27.017Z,1063.02
2018-06-23T03:59:27.021Z,1063.09
2018-06-23T04:00:27.002Z,1063.03
2018-06-23T04:01:27.017Z,1062.84
2018-06-23T04:02:26.996Z,1062.97
2018-06-23T04:03:27.007Z,1062.69
2018-06-23T04:04:27.001Z,1062.99
2018-06-23T04:05:27.017Z,1062.97
2018-06-23T04:06:27.024Z,1062.77
2018-06-23T04:07:27.025Z,1062.75
2018-06-23T04:08:27.033Z,1062.9
2018-06-23T04:09:27.015Z,1063.19
2018-06-23T04:10:27.023Z,1062.75
2018-06-23T04:11:27.070Z,1062.98
2018-06-23T04:12:27.038Z,1062.92
2018-06-23T04:13:27.034Z,1062.82
2018-06-23T04:14:27.041Z,1063.03
2018-06-23T04:15:27.037Z,1062.86
2018-06-23T04:16:27.037Z,1062.99
2018-06-23T04:17:27.041Z,1062.77
2018-06-23T04:18:27.075Z,1062.87
2018-06-23T04:19:27.047Z,1063.1
2018-06-23T04:20:27.035Z,1063.15
2018-06-23T04:21:27.040Z,1062.84
2018-06-23T04:22:27.072Z,1062.93
2018-06-23T04:23:27.053Z,1062.92
2018-06-23T04:24:27.083Z,1063.06
2018-06-23T04:25:27.035Z,1062.97
2018-06-23T04:26:27.051Z,1062.96
2018-06-23T04:27:27.058Z,1062.82
2018-06-23T04:28:27.054Z,1063.25
2018-06-23T04:29:27.046Z,1062.93
2018-06-23T04:30:27.052Z,1062.97
2018-06-23T04:31:27.058Z,1063.27
2018-06-23T04:32:27.061Z,1063.27
2018-06-23T04:33:27.068Z,1063.14
2018-06-23T04:34:27.079Z,1063.2
2018-06-23T04:35:27.076Z,1063.06
2018-06-23T04:36:27.056Z,1063.62
2018-06-23T04:37:27.075Z,1063.81
2018-06-23T04:38:27.080Z,1063.79
2018-06-23T04:39:27.081Z,1063.84
2018-06-23T04:40:27.090Z,1064.06
2018-06-23T04:41:27.067Z,1063.98
2018-06-23T04:42:27.080Z,1064.16
2018-06-23T04:43:27.107Z,1064.22
2018-06-23T04:44:27.083Z,1064.3
2018-06-23T04:45:27.064Z,1064.46
2018-06-23T04:46:27.070Z,1064.53
2018-06-23T04:47:27.111Z,1064.88
2018-06-23T04:48:27.082Z,1064.87
2018-06-23T04:49:27.094Z,1065.04
2018-06-23T04:50:27.073Z,1064.96
2018-06-23T04:51:27.085Z,1064.95
2018-06-23T04:52:27.090Z,1065.03
2018-06-23T04:53:27.108Z,1065.03
2018-06-23T04:54:27.103Z,1065.03
2018-06-23T04:55:27.130Z,1065.25
2018-06-23T04:56:27.087Z,1065.32
2018-06-23T04:57:27.095Z,1065.28
2018-06-23T04:58:27.107Z,1065.14
2018-06-23T04:59:27.117Z,1065.48
2018-06-23T05:00:27.189Z,1065.57
2018-06-23T05:02:50.366Z,1065.82
2018-06-23T05:03:44.440Z,1065.91
2018-06-23T05:04:44.491Z,1065.96
2018-06-23T05:05:44.475Z,1065.89
2018-06-23T05:06:44.452Z,1066.05
2018-06-23T05:07:44.472Z,1066.19
2018-06-23T05:08:44.455Z,1066.25
2018-06-23T05:09:44.459Z,1066.22
2018-06-23T05:10:44.462Z,1066.36
2018-06-23T05:11:44.521Z,1066.26
2018-06-23T05:12:44.525Z,1066.32
2018-06-23T05:13:44.537Z,1066.25
2018-06-23T05:14:44.540Z,1066.12
2018-06-23T05:15:44.541Z,1066.31
2018-06-23T05:16:44.528Z,1066.43
2018-06-23T05:17:44.528Z,1066.65
2018-06-23T05:18:44.546Z,1066.71
2018-06-23T05:19:44.547Z,1066.89
2018-06-23T05:20:44.546Z,1067.15
2018-06-23T05:21:44.555Z,1067.04
2018-06-23T05:22:44.542Z,1067.23
2018-06-23T05:23:44.547Z,1067.18
2018-06-23T05:24:44.528Z,1067.58
2018-06-23T05:25:44.537Z,1067.72
2018-06-23T05:26:44.545Z,1067.85
2018-06-23T05:27:44.556Z,1067.75
2018-06-23T05:28:44.560Z,1067.79
2018-06-23T05:29:44.557Z,1067.76
2018-06-23T05:30:44.541Z,1067.7
2018-06-23T05:31:44.554Z,1067.83
2018-06-23T05:32:44.577Z,1067.65
2018-06-23T05:33:44.583Z,1067.7
2018-06-23T05:34:44.570Z,1067.84
2018-06-23T05:35:44.598Z,1067.77
2018-06-23T05:36:44.579Z,1067.86
2018-06-23T05:37:44.639Z,1067.78
2018-06-23T05:38:44.578Z,1067.73
2018-06-23T05:39:44.577Z,1067.93
2018-06-23T05:40:44.559Z,1068.09
2018-06-23T05:41:44.586Z,1068.14
2018-06-23T05:42:44.589Z,1068.25
2018-06-23T05:43:44.604Z,1068.25
2018-06-23T05:44:44.581Z,1068.59
2018-06-23T05:45:44.585Z,1068.45
2018-06-23T05:46:44.594Z,1068.33
2018-06-23T05:47:44.598Z,1068.36
2018-06-23T05:48:44.591Z,1068.29
2018-06-23T05:49:44.593Z,1068.28
2018-06-23T05:50:44.594Z,1068.31
2018-06-23T05:51:44.604Z,1068.17
2018-06-23T05:52:44.609Z,1068.44
2018-06-23T05:53:44.604Z,1068.53
2018-06-23T05:54:44.678Z,1068.52
2018-06-23T05:55:44.652Z,1068.76
2018-06-23T05:56:44.611Z,1068.77
2018-06-23T05:57:44.638Z,1068.59
2018-06-23T05:58:44.621Z,1068.47
2018-06-23T05:59:44.602Z,1068.32
2018-06-23T06:00:44.616Z,1068.23
2018-06-23T06:01:44.608Z,1068.4
2018-06-23T06:02:48.333Z,1068
2018-06-23T06:03:44.624Z,1068.12
2018-06-23T06:04:44.608Z,1068.23
2018-06-23T06:05:44.620Z,1068.32
2018-06-23T06:06:44.617Z,1068.44
2018-06-23T06:07:44.596Z,1068.24
2018-06-23T06:08:44.629Z,1068.32
2018-06-23T06:09:44.610Z,1068.31
2018-06-23T06:10:44.616Z,1068.25
2018-06-23T06:11:44.662Z,1067.98
2018-06-23T06:12:44.629Z,1068.11
2018-06-23T06:13:44.637Z,1067.9
2018-06-23T06:14:44.643Z,1067.79
2018-06-23T06:15:44.628Z,1067.72
2018-06-23T06:16:44.630Z,1067.58
2018-06-23T06:17:44.636Z,1067.64
2018-06-23T06:18:44.649Z,1067.32
2018-06-23T06:19:44.644Z,1067.43
2018-06-23T06:20:44.650Z,1067.25
2018-06-23T06:21:44.650Z,1067.11
2018-06-23T06:22:44.656Z,1067.07
2018-06-23T06:23:44.711Z,1066.54
2018-06-23T06:24:44.633Z,1066.51
2018-06-23T06:25:44.647Z,1066.53
2018-06-23T06:26:44.645Z,1066.26
2018-06-23T06:27:45.318Z,1066.17
2018-06-23T06:28:44.662Z,1066.09
2018-06-23T06:29:44.665Z,1066.05
2018-06-23T06:30:44.650Z,1066.19
2018-06-23T06:31:44.656Z,1067.34
2018-06-23T06:32:44.669Z,1068.69
2018-06-23T06:33:46.904Z,1069.67
2018-06-23T06:34:44.656Z,1069.97
2018-06-23T06:35:44.767Z,1070.16
2018-06-23T06:36:44.659Z,1069.92
2018-06-23T06:37:44.689Z,1069.71
2018-06-23T06:38:44.682Z,1069.42
2018-06-23T06:39:44.738Z,1069.08
2018-06-23T06:40:44.692Z,1069.01
2018-06-23T06:41:44.705Z,1068.74
2018-06-23T06:42:44.702Z,1068.67
2018-06-23T06:43:44.707Z,1068.72
2018-06-23T06:44:44.690Z,1069.23
2018-06-23T06:45:44.667Z,1069.51
2018-06-23T06:46:44.672Z,1070.02
2018-06-23T06:47:44.683Z,1069.76
2018-06-23T06:48:44.690Z,1069.45
2018-06-23T06:49:44.693Z,1069.42
2018-06-23T06:50:44.746Z,1069.17
2018-06-23T06:51:44.707Z,1069.13
2018-06-23T06:52:44.796Z,1069.44
2018-06-23T06:53:44.705Z,1070.61
2018-06-23T06:54:44.753Z,1071.16
2018-06-23T06:55:44.706Z,1071.57
2018-06-23T06:56:44.696Z,1071.82
2018-06-23T06:57:44.702Z,1071.79
2018-06-23T06:58:44.711Z,1071.35
2018-06-23T06:59:44.717Z,1071.16
2018-06-23T07:00:44.745Z,1070.88
2018-06-23T07:01:44.726Z,1070.27
2018-06-23T07:02:44.734Z,1070.24
2018-06-23T07:03:44.719Z,1069.77
2018-06-23T07:04:44.764Z,1069.56
2018-06-23T07:05:44.732Z,1069.35
2018-06-23T07:06:44.726Z,1068.89
2018-06-23T07:07:44.744Z,1068.48
2018-06-23T07:08:44.767Z,1068.19
2018-06-23T07:09:44.720Z,1067.98
2018-06-23T07:10:44.757Z,1067.36
2018-06-23T07:11:44.718Z,1066.98
2018-06-23T07:12:44.722Z,1066.82
2018-06-23T07:13:44.733Z,1066.61
2018-06-23T07:14:44.742Z,1066.4
2018-06-23T07:15:44.744Z,1066.31
2018-06-23T07:16:44.739Z,1066.36
2018-06-23T07:17:44.750Z,1066.44
2018-06-23T07:18:44.759Z,1066.69
2018-06-23T07:19:44.774Z,1066.83
2018-06-23T07:20:44.774Z,1067.09
2018-06-23T07:21:44.774Z,1067.32
2018-06-23T07:22:44.764Z,1067.29
2018-06-23T07:23:44.838Z,1067.25
2018-06-23T07:24:44.754Z,1067.51
2018-06-23T07:25:44.755Z,1067.73
2018-06-23T07:26:44.832Z,1067.61
2018-06-23T07:27:44.795Z,1067.43
2018-06-23T07:28:44.748Z,1067.88
2018-06-23T07:29:44.765Z,1067.93
2018-06-23T07:30:44.812Z,1067.96
2018-06-23T07:31:44.773Z,1068.31
2018-06-23T07:32:44.770Z,1068.48
2018-06-23T07:33:44.759Z,1068.59
2018-06-23T07:34:44.843Z,1068.9
2018-06-23T07:35:44.767Z,1069
2018-06-23T07:36:44.803Z,1069.04
2018-06-23T07:37:44.789Z,1069.37
2018-06-23T07:38:44.811Z,1069.39
2018-06-23T07:39:44.792Z,1069.73
2018-06-23T07:40:44.811Z,1069.57
2018-06-23T07:41:44.805Z,1069.43
2018-06-23T07:42:44.788Z,1069.31
2018-06-23T07:43:44.791Z,1068.95
2018-06-23T07:44:44.800Z,1069
2018-06-23T07:45:44.805Z,1068.8
2018-06-23T07:46:44.890Z,1068.36
2018-06-23T07:47:44.792Z,1068.39
2018-06-23T07:48:44.865Z,1068.13
2018-06-23T07:49:44.809Z,1068.18
2018-06-23T07:50:44.816Z,1068.09
2018-06-23T07:51:44.815Z,1068.27
2018-06-23T07:52:44.822Z,1068.15
2018-06-23T07:53:45.443Z,1067.86
2018-06-23T07:54:44.816Z,1067.97
2018-06-23T07:55:44.820Z,1067.75
2018-06-23T07:56:44.805Z,1067.68
2018-06-23T07:57:44.813Z,1067.61
2018-06-23T07:58:44.860Z,1067.48
2018-06-23T07:59:44.816Z,1067.23
2018-06-23T08:00:45.129Z,1067.26
2018-06-23T08:01:44.947Z,1067.24
2018-06-23T08:02:44.903Z,1067.26
2018-06-23T08:03:44.823Z,1067.17
2018-06-23T08:04:44.847Z,1067.24
2018-06-23T08:05:44.828Z,1067.18
2018-06-23T08:06:44.842Z,1067.18
2018-06-23T08:07:44.828Z,1067.44
2018-06-23T08:08:44.890Z,1067.95
2018-06-23T08:09:44.839Z,1068.29
2018-06-23T08:10:44.890Z,1068.19
2018-06-23T08:11:44.888Z,1068.79
2018-06-23T08:12:44.861Z,1068.83
2018-06-23T08:13:44.994Z,1069.08
2018-06-23T08:14:44.850Z,1069.06
2018-06-23T08:15:44.856Z,1069.01
2018-06-23T08:16:44.850Z,1069.25
2018-06-23T08:17:44.832Z,1069.08
2018-06-23T08:18:44.876Z,1069.26
2018-06-23T08:19:44.859Z,1069.28
2018-06-23T08:20:44.889Z,1069.45
2018-06-23T08:21:44.922Z,1069.75
2018-06-23T08:22:44.903Z,1069.83
2018-06-23T08:23:44.958Z,1069.63
2018-06-23T08:24:44.871Z,1069.73
2018-06-23T08:25:44.881Z,1069.54
2018-06-23T08:26:44.960Z,1069.73
2018-06-23T08:27:44.872Z,1069.63
2018-06-23T08:28:44.956Z,1069.83
2018-06-23T08:29:44.859Z,1069.9
2018-06-23T08:30:44.877Z,1069.92
2018-06-23T08:31:44.877Z,1070.58
2018-06-23T08:32:44.867Z,1071.34
2018-06-23T08:33:44.873Z,1072.19
2018-06-23T08:34:44.876Z,1072.38
2018-06-23T08:35:44.886Z,1072.68
2018-06-23T08:36:44.885Z,1072.55
2018-06-23T08:37:44.893Z,1072.66
2018-06-23T08:38:44.901Z,1072.52
2018-06-23T08:39:44.887Z,1072.43
2018-06-23T08:40:44.880Z,1072.21
2018-06-23T08:41:44.948Z,1072.12
2018-06-23T08:42:44.928Z,1072.13
2018-06-23T08:43:44.978Z,1071.99
2018-06-23T08:44:44.904Z,1071.92
2018-06-23T08:45:44.929Z,1072
2018-06-23T08:46:44.909Z,1071.92
2018-06-23T08:47:44.897Z,1071.96
2018-06-23T08:48:44.914Z,1071.98
2018-06-23T08:49:44.938Z,1072.2
2018-06-23T08:50:44.922Z,1072.19
2018-06-23T08:51:44.909Z,1072.06
2018-06-23T08:52:44.918Z,1072.24
2018-06-23T08:53:44.915Z,1072.18
2018-06-23T08:54:44.917Z,1071.81
2018-06-23T08:55:44.939Z,1071.78
2018-06-23T08:56:44.935Z,1071.96
2018-06-23T08:57:44.919Z,1071.84
2018-06-23T08:58:44.922Z,1071.84
2018-06-23T08:59:44.907Z,1072.11
2018-06-23T09:00:44.934Z,1072.22
2018-06-23T09:01:44.998Z,1072.37
2018-06-23T09:02:44.960Z,1072.28
2018-06-23T09:03:44.928Z,1072.42
2018-06-23T09:04:44.940Z,1072.12
2018-06-23T09:05:44.943Z,1072.14
2018-06-23T09:06:44.957Z,1072.04
2018-06-23T09:07:45.030Z,1072.03
2018-06-23T09:08:44.949Z,1071.84
2018-06-23T09:09:45.095Z,1072.03
2018-06-23T09:10:45.002Z,1072.08
2018-06-23T09:11:44.961Z,1072.02
2018-06-23T09:12:44.961Z,1072.06
2018-06-23T09:13:44.944Z,1071.92
2018-06-23T09:14:44.985Z,1072.05
2018-06-23T09:15:44.956Z,1072.73
2018-06-23T09:16:45.053Z,1073.95
2018-06-23T09:17:44.941Z,1075.36
2018-06-23T09:18:44.952Z,1076.5
2018-06-23T09:19:45.036Z,1077.26
2018-06-23T09:20:44.970Z,1077.87
2018-06-23T09:25:13.158Z,1078.58
2018-06-23T09:26:13.132Z,1078.46
2018-06-23T09:27:13.164Z,1078.01
2018-06-23T09:28:13.122Z,1077.63
2018-06-23T09:29:13.177Z,1077.57
2018-06-23T09:30:13.179Z,1077.39
2018-06-23T09:31:13.165Z,1077.02
2018-06-23T09:32:13.173Z,1076.83
2018-06-23T09:33:13.136Z,1076.52
2018-06-23T09:34:13.130Z,1076.23
2018-06-23T09:35:13.148Z,1076.09
2018-06-23T09:36:13.148Z,1076.05
2018-06-23T09:37:13.155Z,1076.34
2018-06-23T09:38:13.146Z,1076.27
2018-06-23T09:39:13.147Z,1076.45
2018-06-23T09:40:13.179Z,1076.08
2018-06-23T09:41:13.190Z,1076.11
2018-06-23T09:42:13.163Z,1075.89
2018-06-23T09:43:13.167Z,1075.77
2018-06-23T09:44:13.175Z,1075.56
2018-06-23T09:45:13.156Z,1075.48
2018-06-23T09:46:13.279Z,1075.23
2018-06-23T09:47:13.171Z,1075.18
2018-06-23T09:48:13.151Z,1075.15
2018-06-23T09:49:13.485Z,1075.13
2018-06-23T09:50:13.170Z,1074.98
2018-06-23T09:51:13.277Z,1075.02
2018-06-23T09:52:13.170Z,1075
2018-06-23T09:53:13.201Z,1074.83
2018-06-23T09:54:13.169Z,1074.94
2018-06-23T09:55:13.163Z,1074.71
2018-06-23T09:56:13.194Z,1074.86
2018-06-23T09:57:13.202Z,1075.29
2018-06-23T09:58:13.243Z,1075.56
2018-06-23T09:59:13.224Z,1075.72
2018-06-23T10:00:13.184Z,1075.82
2018-06-23T10:01:13.182Z,1075.69
2018-06-23T10:02:13.189Z,1075.49
2018-06-23T10:03:13.284Z,1075.48
2018-06-23T10:04:13.205Z,1075.36
2018-06-23T10:05:13.205Z,1075.24
2018-06-23T10:06:13.188Z,1075.22
2018-06-23T10:07:13.194Z,1075.37
2018-06-23T10:08:13.210Z,1075.06
2018-06-23T10:09:13.212Z,1075.25
2018-06-23T10:10:13.216Z,1075.06
2018-06-23T10:12:32.061Z,1075.12
2018-06-23T10:13:32.046Z,1075.89
2018-06-23T10:14:32.061Z,1076.64
2018-06-23T10:15:32.099Z,1077.06
2018-06-23T10:16:32.177Z,1077.06
2018-06-23T10:17:32.073Z,1076.93
2018-06-23T10:22:00.427Z,1076.48
2018-06-23T10:23:00.373Z,1076.44
2018-06-23T10:24:00.373Z,1076.27
2018-06-23T10:25:00.383Z,1076.02
2018-06-23T10:26:00.395Z,1076.01
2018-06-23T10:27:00.424Z,1075.73
2018-06-23T10:28:00.402Z,1075.76
2018-06-23T10:29:00.412Z,1075.5
2018-06-23T10:30:00.412Z,1075.59
2018-06-23T10:31:00.423Z,1075.23
2018-06-23T10:32:00.426Z,1075.46
2018-06-23T10:33:00.392Z,1075.2
2018-06-23T10:34:00.388Z,1074.99
2018-06-23T10:35:00.460Z,1074.86
2018-06-23T10:36:00.402Z,1074.75
2018-06-23T10:37:00.417Z,1074.71
2018-06-23T10:38:00.469Z,1074.63
2018-06-23T10:39:00.434Z,1074.87
2018-06-23T10:40:00.412Z,1074.93
2018-06-23T10:41:00.439Z,1074.99
2018-06-23T10:42:00.446Z,1074.94
2018-06-23T10:43:00.437Z,1074.85
2018-06-23T10:44:00.433Z,1074.76
2018-06-23T10:45:00.458Z,1074.58
2018-06-23T10:46:00.442Z,1074.55
2018-06-23T10:47:00.426Z,1074.48
2018-06-23T10:48:00.459Z,1074.16
2018-06-23T10:49:00.454Z,1074.14
2018-06-23T10:50:00.441Z,1074.02
2018-06-23T10:51:00.460Z,1074.09
2018-06-23T10:52:00.456Z,1074.12
2018-06-23T10:53:00.533Z,1073.95
2018-06-23T10:54:00.451Z,1073.98
2018-06-23T10:55:00.457Z,1073.91
2018-06-23T10:56:00.436Z,1074.01
2018-06-23T10:57:00.449Z,1073.71
2018-06-23T10:58:04.335Z,1073.92
2018-06-23T10:59:00.456Z,1073.9
2018-06-23T11:00:00.481Z,1073.87
2018-06-23T11:01:00.468Z,1073.89
2018-06-23T11:02:00.468Z,1073.84
2018-06-23T11:03:00.480Z,1073.89
2018-06-23T11:04:00.483Z,1074.02
2018-06-23T11:05:00.526Z,1074.09
2018-06-23T11:06:00.476Z,1074.02
2018-06-23T11:07:00.505Z,1073.88
2018-06-23T11:08:00.481Z,1074.02
2018-06-23T11:09:00.469Z,1073.89
2018-06-23T11:10:00.473Z,1073.91
2018-06-23T11:11:00.487Z,1073.83
2018-06-23T11:12:00.460Z,1073.82
2018-06-23T11:13:00.489Z,1073.99
2018-06-23T11:14:00.468Z,1074.01
2018-06-23T11:15:00.513Z,1074.02
2018-06-23T11:16:00.469Z,1074.02
2018-06-23T11:17:00.505Z,1073.93
2018-06-23T11:18:00.482Z,1073.89
2018-06-23T11:19:00.486Z,1073.9
2018-06-23T11:20:00.485Z,1074.02
2018-06-23T11:21:00.489Z,1073.9
2018-06-23T11:22:00.484Z,1073.66
2018-06-23T11:23:00.488Z,1073.39
2018-06-23T11:24:00.498Z,1073.13
2018-06-23T11:25:00.541Z,1072.85
2018-06-23T11:26:00.511Z,1072.69
2018-06-23T11:30:28.852Z,1071.91
2018-06-23T11:31:28.722Z,1071.73
2018-06-23T11:32:28.725Z,1071.83
2018-06-23T11:33:28.731Z,1071.57
2018-06-23T11:34:28.714Z,1071.56
2018-06-23T11:35:28.717Z,1071.52
2018-06-23T11:36:28.747Z,1071.27
2018-06-23T11:37:28.703Z,1071.05
2018-06-23T11:38:28.750Z,1071.35
2018-06-23T11:39:28.724Z,1071.26
2018-06-23T11:40:28.723Z,1071.07
2018-06-23T11:41:28.782Z,1071.1
2018-06-23T11:42:28.786Z,1071.2
2018-06-23T11:43:28.743Z,1071.18
2018-06-23T11:44:28.734Z,1070.96
2018-06-23T11:45:28.731Z,1071.23
2018-06-23T11:46:28.781Z,1070.98
2018-06-23T11:47:28.744Z,1071
2018-06-23T11:48:28.758Z,1071.52
2018-06-23T11:49:28.732Z,1072.03
2018-06-23T11:50:28.750Z,1072.49
2018-06-23T11:51:28.748Z,1072.82
2018-06-23T11:52:28.813Z,1072.62
2018-06-23T11:53:28.757Z,1072.93
2018-06-23T11:54:28.739Z,1072.74
2018-06-23T11:55:28.773Z,1072.63
2018-06-23T11:56:28.781Z,1072.54
2018-06-23T11:57:28.813Z,1072.52
2018-06-23T11:58:28.777Z,1072.7
2018-06-23T11:59:28.773Z,1072.32
2018-06-23T12:00:28.752Z,1072.23
2018-06-23T12:01:28.761Z,1072.13
2018-06-23T12:02:28.779Z,1072.05
2018-06-23T12:03:28.786Z,1071.91
2018-06-23T12:04:28.780Z,1072.1
2018-06-23T12:05:28.788Z,1072.05
2018-06-23T12:06:28.791Z,1071.99
2018-06-23T12:07:28.773Z,1072.42
2018-06-23T12:08:28.811Z,1072.83
2018-06-23T12:09:28.792Z,1073.16
2018-06-23T12:10:28.806Z,1073.94
2018-06-23T12:11:28.770Z,1073.91
2018-06-23T12:12:28.790Z,1074.27
2018-06-23T12:13:28.784Z,1074.18
2018-06-23T12:14:28.816Z,1074.1
2018-06-23T12:15:28.773Z,1073.97
2018-06-23T12:16:28.802Z,1073.75
2018-06-23T12:17:28.780Z,1073.67
2018-06-23T12:18:28.801Z,1073.13
2018-06-23T12:19:28.793Z,1072.7
2018-06-23T12:20:28.806Z,1072.24
2018-06-23T12:21:28.797Z,1071.94
2018-06-23T12:22:28.794Z,1071.38
2018-06-23T12:23:28.827Z,1070.94
2018-06-23T12:24:28.811Z,1070.29
2018-06-23T12:25:28.852Z,1070.25
2018-06-23T12:26:28.826Z,1069.84
2018-06-23T12:27:28.800Z,1069.42
2018-06-23T12:28:28.820Z,1069.17
2018-06-23T12:29:28.815Z,1068.58
2018-06-23T12:30:28.842Z,1068.56
2018-06-23T12:31:28.826Z,1068
2018-06-23T12:32:28.805Z,1067.77
2018-06-23T12:33:28.820Z,1067.53
2018-06-23T12:34:28.882Z,1067.17
2018-06-23T12:35:28.883Z,1066.78